sensor_id;sensor_type;location;lat;lon;timestamp;P1;durP1;ratioP1;P2;durP2;ratioP2
16792;SDS011;8513;42.662;23.350;2023-02-02T00:01:14;2.63;;;1.83;;
16792;SDS011;8513;42.662;23.350;2023-02-02T00:03:40;3.20;;;2.23;;
16792;SDS011;8513;42.662;23.350;2023-02-02T00:06:05;3.20;;;1.70;;
16792;SDS011;8513;42.662;23.350;2023-02-02T00:08:31;5.17;;;2.13;;
16792;SDS011;8513;42.662;23.350;2023-02-02T00:10:57;4.17;;;2.00;;
16792;SDS011;8513;42.662;23.350;2023-02-02T00:13:23;5.77;;;2.30;;
16792;SDS011;8513;42.662;23.350;2023-02-02T00:15:48;4.87;;;2.17;;
16792;SDS011;8513;42.662;23.350;2023-02-02T00:18:14;4.00;;;1.70;;
16792;SDS011;8513;42.662;23.350;2023-02-02T00:20:39;2.73;;;1.83;;
16792;SDS011;8513;42.662;23.350;2023-02-02T00:23:05;3.37;;;1.73;;
16792;SDS011;8513;42.662;23.350;2023-02-02T00:25:31;6.77;;;2.10;;
16792;SDS011;8513;42.662;23.350;2023-02-02T00:27:57;4.53;;;2.37;;
16792;SDS011;8513;42.662;23.350;2023-02-02T00:30:22;3.27;;;1.80;;
16792;SDS011;8513;42.662;23.350;2023-02-02T00:32:48;5.10;;;2.27;;
16792;SDS011;8513;42.662;23.350;2023-02-02T00:35:16;4.97;;;2.40;;
16792;SDS011;8513;42.662;23.350;2023-02-02T00:37:42;3.90;;;2.23;;
16792;SDS011;8513;42.662;23.350;2023-02-02T00:40:08;3.83;;;2.37;;
16792;SDS011;8513;42.662;23.350;2023-02-02T00:42:34;6.57;;;2.70;;
16792;SDS011;8513;42.662;23.350;2023-02-02T00:44:59;6.33;;;2.47;;
16792;SDS011;8513;42.662;23.350;2023-02-02T00:47:40;4.73;;;2.33;;
16792;SDS011;8513;42.662;23.350;2023-02-02T00:50:09;3.50;;;2.20;;
16792;SDS011;8513;42.662;23.350;2023-02-02T00:52:36;5.00;;;2.10;;
16792;SDS011;8513;42.662;23.350;2023-02-02T00:55:02;4.30;;;2.43;;
16792;SDS011;8513;42.662;23.350;2023-02-02T00:57:27;3.40;;;2.30;;
16792;SDS011;8513;42.662;23.350;2023-02-02T00:59:53;3.10;;;2.20;;
16792;SDS011;8513;42.662;23.350;2023-02-02T01:02:18;5.80;;;2.53;;
16792;SDS011;8513;42.662;23.350;2023-02-02T01:04:44;3.93;;;2.23;;
16792;SDS011;8513;42.662;23.350;2023-02-02T01:07:09;3.00;;;1.90;;
16792;SDS011;8513;42.662;23.350;2023-02-02T01:09:34;5.13;;;1.90;;
16792;SDS011;8513;42.662;23.350;2023-02-02T01:12:00;2.23;;;2.03;;
16792;SDS011;8513;42.662;23.350;2023-02-02T01:14:25;3.73;;;2.00;;
16792;SDS011;8513;42.662;23.350;2023-02-02T01:16:51;2.67;;;1.90;;
16792;SDS011;8513;42.662;23.350;2023-02-02T01:19:16;3.30;;;2.30;;
16792;SDS011;8513;42.662;23.350;2023-02-02T01:21:42;3.67;;;2.30;;
16792;SDS011;8513;42.662;23.350;2023-02-02T01:24:07;4.23;;;1.90;;
16792;SDS011;8513;42.662;23.350;2023-02-02T01:26:33;5.60;;;2.80;;
16792;SDS011;8513;42.662;23.350;2023-02-02T01:28:59;3.90;;;2.40;;
16792;SDS011;8513;42.662;23.350;2023-02-02T01:31:24;3.13;;;1.97;;
16792;SDS011;8513;42.662;23.350;2023-02-02T01:33:50;4.27;;;2.63;;
16792;SDS011;8513;42.662;23.350;2023-02-02T01:36:17;5.50;;;2.40;;
16792;SDS011;8513;42.662;23.350;2023-02-02T01:38:44;3.87;;;2.27;;
16792;SDS011;8513;42.662;23.350;2023-02-02T01:41:21;5.10;;;1.93;;
16792;SDS011;8513;42.662;23.350;2023-02-02T01:43:50;2.60;;;2.30;;
16792;SDS011;8513;42.662;23.350;2023-02-02T01:46:25;2.40;;;1.90;;
16792;SDS011;8513;42.662;23.350;2023-02-02T01:49:13;3.47;;;2.37;;
16792;SDS011;8513;42.662;23.350;2023-02-02T01:51:42;2.77;;;2.33;;
16792;SDS011;8513;42.662;23.350;2023-02-02T01:54:13;3.83;;;2.80;;
16792;SDS011;8513;42.662;23.350;2023-02-02T01:56:45;6.70;;;3.73;;
16792;SDS011;8513;42.662;23.350;2023-02-02T01:59:15;4.27;;;3.50;;
16792;SDS011;8513;42.662;23.350;2023-02-02T02:01:42;7.63;;;4.20;;
16792;SDS011;8513;42.662;23.350;2023-02-02T02:04:10;6.53;;;4.43;;
16792;SDS011;8513;42.662;23.350;2023-02-02T02:06:36;7.10;;;4.70;;
16792;SDS011;8513;42.662;23.350;2023-02-02T02:09:03;7.27;;;4.63;;
16792;SDS011;8513;42.662;23.350;2023-02-02T02:11:30;5.67;;;4.43;;
16792;SDS011;8513;42.662;23.350;2023-02-02T02:14:08;8.17;;;4.50;;
16792;SDS011;8513;42.662;23.350;2023-02-02T02:20:05;4.60;;;3.30;;
16792;SDS011;8513;42.662;23.350;2023-02-02T02:34:30;3.37;;;3.00;;
16792;SDS011;8513;42.662;23.350;2023-02-02T02:42:22;3.60;;;2.57;;
16792;SDS011;8513;42.662;23.350;2023-02-02T02:44:52;3.83;;;2.77;;
16792;SDS011;8513;42.662;23.350;2023-02-02T02:47:19;5.33;;;2.83;;
16792;SDS011;8513;42.662;23.350;2023-02-02T02:49:46;3.83;;;2.73;;
16792;SDS011;8513;42.662;23.350;2023-02-02T02:52:12;3.43;;;2.83;;
16792;SDS011;8513;42.662;23.350;2023-02-02T02:54:59;4.27;;;2.90;;
16792;SDS011;8513;42.662;23.350;2023-02-02T02:57:29;4.33;;;3.27;;
16792;SDS011;8513;42.662;23.350;2023-02-02T03:08:31;4.13;;;2.87;;
16792;SDS011;8513;42.662;23.350;2023-02-02T03:10:58;3.97;;;3.30;;
16792;SDS011;8513;42.662;23.350;2023-02-02T03:13:26;3.67;;;2.73;;
16792;SDS011;8513;42.662;23.350;2023-02-02T03:15:53;5.43;;;3.00;;
16792;SDS011;8513;42.662;23.350;2023-02-02T03:18:19;5.43;;;3.57;;
16792;SDS011;8513;42.662;23.350;2023-02-02T03:20:47;4.83;;;3.30;;
16792;SDS011;8513;42.662;23.350;2023-02-02T03:23:12;3.60;;;2.90;;
16792;SDS011;8513;42.662;23.350;2023-02-02T03:25:38;4.80;;;3.10;;
16792;SDS011;8513;42.662;23.350;2023-02-02T03:28:05;5.23;;;3.30;;
16792;SDS011;8513;42.662;23.350;2023-02-02T03:30:31;4.47;;;3.20;;
16792;SDS011;8513;42.662;23.350;2023-02-02T03:32:57;3.13;;;2.83;;
16792;SDS011;8513;42.662;23.350;2023-02-02T03:35:23;3.53;;;3.00;;
16792;SDS011;8513;42.662;23.350;2023-02-02T03:37:50;5.17;;;3.20;;
16792;SDS011;8513;42.662;23.350;2023-02-02T03:40:15;4.93;;;3.23;;
16792;SDS011;8513;42.662;23.350;2023-02-02T03:42:41;4.33;;;3.07;;
16792;SDS011;8513;42.662;23.350;2023-02-02T03:45:07;5.03;;;3.10;;
16792;SDS011;8513;42.662;23.350;2023-02-02T03:47:32;4.47;;;2.73;;
16792;SDS011;8513;42.662;23.350;2023-02-02T03:49:58;4.10;;;3.20;;
16792;SDS011;8513;42.662;23.350;2023-02-02T03:52:23;3.63;;;2.90;;
16792;SDS011;8513;42.662;23.350;2023-02-02T03:54:49;4.77;;;2.93;;
16792;SDS011;8513;42.662;23.350;2023-02-02T03:57:15;3.53;;;2.93;;
16792;SDS011;8513;42.662;23.350;2023-02-02T03:59:41;4.43;;;3.40;;
16792;SDS011;8513;42.662;23.350;2023-02-02T04:02:06;4.17;;;3.13;;
16792;SDS011;8513;42.662;23.350;2023-02-02T04:04:32;4.43;;;3.20;;
16792;SDS011;8513;42.662;23.350;2023-02-02T04:06:58;5.17;;;3.60;;
16792;SDS011;8513;42.662;23.350;2023-02-02T04:09:24;5.00;;;3.50;;
16792;SDS011;8513;42.662;23.350;2023-02-02T04:11:50;4.97;;;3.43;;
16792;SDS011;8513;42.662;23.350;2023-02-02T04:14:15;5.50;;;3.77;;
16792;SDS011;8513;42.662;23.350;2023-02-02T04:16:41;6.03;;;4.10;;
16792;SDS011;8513;42.662;23.350;2023-02-02T04:19:06;6.43;;;3.90;;
16792;SDS011;8513;42.662;23.350;2023-02-02T04:21:32;5.73;;;4.13;;
16792;SDS011;8513;42.662;23.350;2023-02-02T04:23:57;4.33;;;3.93;;
16792;SDS011;8513;42.662;23.350;2023-02-02T04:26:23;4.97;;;3.83;;
16792;SDS011;8513;42.662;23.350;2023-02-02T04:28:50;5.10;;;3.90;;
16792;SDS011;8513;42.662;23.350;2023-02-02T04:31:16;5.63;;;3.97;;
16792;SDS011;8513;42.662;23.350;2023-02-02T04:33:41;6.30;;;3.90;;
16792;SDS011;8513;42.662;23.350;2023-02-02T04:36:07;7.47;;;4.00;;
16792;SDS011;8513;42.662;23.350;2023-02-02T04:38:32;7.77;;;3.90;;
16792;SDS011;8513;42.662;23.350;2023-02-02T04:40:58;4.57;;;3.60;;
16792;SDS011;8513;42.662;23.350;2023-02-02T04:43:29;5.83;;;4.10;;
16792;SDS011;8513;42.662;23.350;2023-02-02T04:45:54;5.83;;;3.80;;
16792;SDS011;8513;42.662;23.350;2023-02-02T04:48:21;4.60;;;4.03;;
16792;SDS011;8513;42.662;23.350;2023-02-02T04:50:46;4.30;;;3.90;;
16792;SDS011;8513;42.662;23.350;2023-02-02T04:53:11;5.17;;;3.90;;
16792;SDS011;8513;42.662;23.350;2023-02-02T04:55:37;6.37;;;4.07;;
16792;SDS011;8513;42.662;23.350;2023-02-02T04:58:03;4.87;;;4.03;;
16792;SDS011;8513;42.662;23.350;2023-02-02T05:00:29;6.07;;;4.47;;
16792;SDS011;8513;42.662;23.350;2023-02-02T05:02:55;5.50;;;4.17;;
16792;SDS011;8513;42.662;23.350;2023-02-02T05:05:20;5.97;;;3.87;;
16792;SDS011;8513;42.662;23.350;2023-02-02T05:07:45;5.87;;;4.10;;
16792;SDS011;8513;42.662;23.350;2023-02-02T05:10:11;6.30;;;4.07;;
16792;SDS011;8513;42.662;23.350;2023-02-02T05:12:36;5.87;;;4.80;;
16792;SDS011;8513;42.662;23.350;2023-02-02T05:15:02;6.93;;;4.30;;
16792;SDS011;8513;42.662;23.350;2023-02-02T05:17:29;6.13;;;4.20;;
16792;SDS011;8513;42.662;23.350;2023-02-02T05:19:55;6.97;;;4.80;;
16792;SDS011;8513;42.662;23.350;2023-02-02T05:22:21;4.73;;;4.17;;
16792;SDS011;8513;42.662;23.350;2023-02-02T05:24:46;6.97;;;5.00;;
16792;SDS011;8513;42.662;23.350;2023-02-02T05:27:12;4.13;;;3.73;;
16792;SDS011;8513;42.662;23.350;2023-02-02T05:29:37;6.27;;;3.97;;
16792;SDS011;8513;42.662;23.350;2023-02-02T05:32:03;5.57;;;4.17;;
16792;SDS011;8513;42.662;23.350;2023-02-02T05:34:28;4.60;;;4.10;;
16792;SDS011;8513;42.662;23.350;2023-02-02T05:36:54;5.47;;;4.03;;
16792;SDS011;8513;42.662;23.350;2023-02-02T05:39:19;7.80;;;4.40;;
16792;SDS011;8513;42.662;23.350;2023-02-02T05:41:45;6.27;;;4.30;;
16792;SDS011;8513;42.662;23.350;2023-02-02T05:44:11;9.17;;;5.13;;
16792;SDS011;8513;42.662;23.350;2023-02-02T05:46:38;7.10;;;5.50;;
16792;SDS011;8513;42.662;23.350;2023-02-02T05:49:04;10.20;;;5.50;;
16792;SDS011;8513;42.662;23.350;2023-02-02T05:51:30;8.43;;;5.57;;
16792;SDS011;8513;42.662;23.350;2023-02-02T05:54:03;6.50;;;5.40;;
16792;SDS011;8513;42.662;23.350;2023-02-02T05:56:28;5.50;;;4.80;;
16792;SDS011;8513;42.662;23.350;2023-02-02T05:58:54;8.03;;;4.40;;
16792;SDS011;8513;42.662;23.350;2023-02-02T06:01:19;8.33;;;5.97;;
16792;SDS011;8513;42.662;23.350;2023-02-02T06:03:45;7.60;;;5.67;;
16792;SDS011;8513;42.662;23.350;2023-02-02T06:06:11;9.23;;;5.50;;
16792;SDS011;8513;42.662;23.350;2023-02-02T06:08:36;8.37;;;5.67;;
16792;SDS011;8513;42.662;23.350;2023-02-02T06:13:53;7.67;;;5.53;;
16792;SDS011;8513;42.662;23.350;2023-02-02T06:16:18;9.27;;;6.53;;
16792;SDS011;8513;42.662;23.350;2023-02-02T06:18:43;10.47;;;5.80;;
16792;SDS011;8513;42.662;23.350;2023-02-02T06:21:09;9.27;;;6.67;;
16792;SDS011;8513;42.662;23.350;2023-02-02T06:23:38;9.17;;;6.37;;
16792;SDS011;8513;42.662;23.350;2023-02-02T06:26:10;9.50;;;6.07;;
16792;SDS011;8513;42.662;23.350;2023-02-02T06:28:36;9.87;;;6.37;;
16792;SDS011;8513;42.662;23.350;2023-02-02T06:31:03;9.03;;;6.80;;
16792;SDS011;8513;42.662;23.350;2023-02-02T06:33:29;8.67;;;6.53;;
16792;SDS011;8513;42.662;23.350;2023-02-02T06:35:57;10.77;;;6.77;;
16792;SDS011;8513;42.662;23.350;2023-02-02T06:38:24;11.37;;;8.23;;
16792;SDS011;8513;42.662;23.350;2023-02-02T06:40:50;15.03;;;9.27;;
16792;SDS011;8513;42.662;23.350;2023-02-02T06:43:15;13.10;;;9.63;;
16792;SDS011;8513;42.662;23.350;2023-02-02T06:45:41;13.63;;;9.43;;
16792;SDS011;8513;42.662;23.350;2023-02-02T06:48:06;15.17;;;9.83;;
16792;SDS011;8513;42.662;23.350;2023-02-02T06:50:35;13.00;;;9.77;;
16792;SDS011;8513;42.662;23.350;2023-02-02T06:53:02;14.43;;;9.67;;
16792;SDS011;8513;42.662;23.350;2023-02-02T06:55:27;13.87;;;9.43;;
16792;SDS011;8513;42.662;23.350;2023-02-02T06:57:56;10.90;;;8.87;;
16792;SDS011;8513;42.662;23.350;2023-02-02T07:00:27;13.40;;;9.13;;
16792;SDS011;8513;42.662;23.350;2023-02-02T07:02:54;13.63;;;8.50;;
16792;SDS011;8513;42.662;23.350;2023-02-02T07:05:19;14.27;;;8.93;;
16792;SDS011;8513;42.662;23.350;2023-02-02T07:07:47;13.40;;;9.07;;
16792;SDS011;8513;42.662;23.350;2023-02-02T07:10:23;14.20;;;9.00;;
16792;SDS011;8513;42.662;23.350;2023-02-02T07:12:48;14.13;;;9.47;;
16792;SDS011;8513;42.662;23.350;2023-02-02T07:15:14;11.13;;;9.33;;
16792;SDS011;8513;42.662;23.350;2023-02-02T07:17:39;15.17;;;8.70;;
16792;SDS011;8513;42.662;23.350;2023-02-02T07:20:05;24.37;;;11.13;;
16792;SDS011;8513;42.662;23.350;2023-02-02T07:22:30;16.77;;;9.80;;
16792;SDS011;8513;42.662;23.350;2023-02-02T07:24:56;15.53;;;10.10;;
16792;SDS011;8513;42.662;23.350;2023-02-02T07:27:21;18.10;;;11.10;;
16792;SDS011;8513;42.662;23.350;2023-02-02T07:29:47;20.27;;;13.30;;
16792;SDS011;8513;42.662;23.350;2023-02-02T07:32:12;22.87;;;14.83;;
16792;SDS011;8513;42.662;23.350;2023-02-02T07:34:38;17.60;;;14.03;;
16792;SDS011;8513;42.662;23.350;2023-02-02T07:37:03;16.80;;;12.73;;
16792;SDS011;8513;42.662;23.350;2023-02-02T07:39:29;21.77;;;15.60;;
16792;SDS011;8513;42.662;23.350;2023-02-02T07:41:54;20.43;;;14.77;;
16792;SDS011;8513;42.662;23.350;2023-02-02T07:44:20;23.83;;;16.03;;
16792;SDS011;8513;42.662;23.350;2023-02-02T07:46:45;23.17;;;17.20;;
16792;SDS011;8513;42.662;23.350;2023-02-02T07:49:12;24.70;;;16.30;;
16792;SDS011;8513;42.662;23.350;2023-02-02T07:51:39;26.80;;;15.43;;
16792;SDS011;8513;42.662;23.350;2023-02-02T07:54:04;20.50;;;14.97;;
16792;SDS011;8513;42.662;23.350;2023-02-02T07:56:30;26.23;;;14.80;;
16792;SDS011;8513;42.662;23.350;2023-02-02T07:58:56;27.17;;;15.90;;
16792;SDS011;8513;42.662;23.350;2023-02-02T08:01:22;18.87;;;13.63;;
16792;SDS011;8513;42.662;23.350;2023-02-02T08:03:50;17.70;;;12.87;;
16792;SDS011;8513;42.662;23.350;2023-02-02T08:06:18;18.73;;;11.73;;
16792;SDS011;8513;42.662;23.350;2023-02-02T08:08:46;21.53;;;11.97;;
16792;SDS011;8513;42.662;23.350;2023-02-02T08:11:12;18.53;;;12.07;;
16792;SDS011;8513;42.662;23.350;2023-02-02T08:13:40;15.80;;;11.90;;
16792;SDS011;8513;42.662;23.350;2023-02-02T08:16:07;19.57;;;11.93;;
16792;SDS011;8513;42.662;23.350;2023-02-02T08:18:33;22.63;;;13.40;;
16792;SDS011;8513;42.662;23.350;2023-02-02T08:21:00;18.97;;;11.80;;
16792;SDS011;8513;42.662;23.350;2023-02-02T08:23:26;19.17;;;13.30;;
16792;SDS011;8513;42.662;23.350;2023-02-02T08:25:53;18.93;;;12.97;;
16792;SDS011;8513;42.662;23.350;2023-02-02T08:28:19;21.63;;;13.90;;
16792;SDS011;8513;42.662;23.350;2023-02-02T08:30:48;24.10;;;13.67;;
16792;SDS011;8513;42.662;23.350;2023-02-02T08:33:13;21.37;;;15.33;;
16792;SDS011;8513;42.662;23.350;2023-02-02T08:35:39;23.20;;;14.50;;
16792;SDS011;8513;42.662;23.350;2023-02-02T08:38:06;20.60;;;13.40;;
16792;SDS011;8513;42.662;23.350;2023-02-02T08:40:31;18.83;;;13.43;;
16792;SDS011;8513;42.662;23.350;2023-02-02T08:42:57;20.60;;;13.43;;
16792;SDS011;8513;42.662;23.350;2023-02-02T08:45:23;19.20;;;13.50;;
16792;SDS011;8513;42.662;23.350;2023-02-02T08:47:49;18.40;;;12.10;;
16792;SDS011;8513;42.662;23.350;2023-02-02T08:50:15;18.47;;;11.37;;
16792;SDS011;8513;42.662;23.350;2023-02-02T08:52:41;18.83;;;9.60;;
16792;SDS011;8513;42.662;23.350;2023-02-02T08:55:06;13.73;;;9.00;;
16792;SDS011;8513;42.662;23.350;2023-02-02T08:57:33;11.40;;;7.97;;
16792;SDS011;8513;42.662;23.350;2023-02-02T08:59:58;10.27;;;7.33;;
16792;SDS011;8513;42.662;23.350;2023-02-02T09:02:23;12.87;;;7.13;;
16792;SDS011;8513;42.662;23.350;2023-02-02T09:04:49;12.50;;;7.20;;
16792;SDS011;8513;42.662;23.350;2023-02-02T09:07:14;11.93;;;7.23;;
16792;SDS011;8513;42.662;23.350;2023-02-02T09:09:40;14.87;;;8.13;;
16792;SDS011;8513;42.662;23.350;2023-02-02T09:12:05;21.07;;;10.53;;
16792;SDS011;8513;42.662;23.350;2023-02-02T09:14:31;15.60;;;10.67;;
16792;SDS011;8513;42.662;23.350;2023-02-02T09:16:56;16.90;;;10.77;;
16792;SDS011;8513;42.662;23.350;2023-02-02T09:19:22;20.40;;;11.37;;
16792;SDS011;8513;42.662;23.350;2023-02-02T09:21:50;16.10;;;10.90;;
16792;SDS011;8513;42.662;23.350;2023-02-02T09:24:16;12.93;;;9.37;;
16792;SDS011;8513;42.662;23.350;2023-02-02T09:26:42;18.87;;;10.60;;
16792;SDS011;8513;42.662;23.350;2023-02-02T09:29:12;17.73;;;10.87;;
16792;SDS011;8513;42.662;23.350;2023-02-02T09:31:40;15.93;;;9.33;;
16792;SDS011;8513;42.662;23.350;2023-02-02T09:34:07;16.60;;;10.03;;
16792;SDS011;8513;42.662;23.350;2023-02-02T09:36:34;19.60;;;10.83;;
16792;SDS011;8513;42.662;23.350;2023-02-02T09:39:00;19.63;;;9.97;;
16792;SDS011;8513;42.662;23.350;2023-02-02T09:44:18;16.60;;;10.50;;
16792;SDS011;8513;42.662;23.350;2023-02-02T09:55:04;23.00;;;10.23;;
16792;SDS011;8513;42.662;23.350;2023-02-02T09:57:36;16.50;;;10.27;;
16792;SDS011;8513;42.662;23.350;2023-02-02T10:06:15;18.63;;;10.67;;
16792;SDS011;8513;42.662;23.350;2023-02-02T10:08:47;14.47;;;10.07;;
16792;SDS011;8513;42.662;23.350;2023-02-02T10:11:25;14.33;;;10.27;;
16792;SDS011;8513;42.662;23.350;2023-02-02T10:13:55;13.83;;;8.90;;
16792;SDS011;8513;42.662;23.350;2023-02-02T10:16:26;21.97;;;12.37;;
16792;SDS011;8513;42.662;23.350;2023-02-02T10:23:55;20.17;;;9.43;;
16792;SDS011;8513;42.662;23.350;2023-02-02T10:26:26;19.73;;;8.43;;
16792;SDS011;8513;42.662;23.350;2023-02-02T10:40:14;6.70;;;3.80;;
16792;SDS011;8513;42.662;23.350;2023-02-02T10:43:00;7.23;;;3.83;;
16792;SDS011;8513;42.662;23.350;2023-02-02T10:45:54;7.73;;;2.27;;
16792;SDS011;8513;42.662;23.350;2023-02-02T10:48:27;4.83;;;2.23;;
16792;SDS011;8513;42.662;23.350;2023-02-02T10:51:00;2.40;;;2.20;;
16792;SDS011;8513;42.662;23.350;2023-02-02T10:53:31;2.77;;;2.00;;
16792;SDS011;8513;42.662;23.350;2023-02-02T10:56:09;4.13;;;2.40;;
16792;SDS011;8513;42.662;23.350;2023-02-02T10:58:39;6.20;;;2.27;;
16792;SDS011;8513;42.662;23.350;2023-02-02T11:01:12;1.90;;;1.70;;
16792;SDS011;8513;42.662;23.350;2023-02-02T11:03:41;5.53;;;1.80;;
16792;SDS011;8513;42.662;23.350;2023-02-02T11:06:09;3.53;;;2.20;;
16792;SDS011;8513;42.662;23.350;2023-02-02T11:08:55;4.60;;;2.10;;
16792;SDS011;8513;42.662;23.350;2023-02-02T11:11:30;3.00;;;2.27;;
16792;SDS011;8513;42.662;23.350;2023-02-02T11:16:34;7.30;;;2.50;;
16792;SDS011;8513;42.662;23.350;2023-02-02T11:19:27;5.10;;;2.30;;
16792;SDS011;8513;42.662;23.350;2023-02-02T11:21:55;4.17;;;1.87;;
16792;SDS011;8513;42.662;23.350;2023-02-02T11:24:34;4.27;;;1.63;;
16792;SDS011;8513;42.662;23.350;2023-02-02T11:27:16;3.87;;;1.93;;
16792;SDS011;8513;42.662;23.350;2023-02-02T11:29:45;2.00;;;1.67;;
16792;SDS011;8513;42.662;23.350;2023-02-02T11:37:38;3.23;;;1.87;;
16792;SDS011;8513;42.662;23.350;2023-02-02T11:40:39;3.30;;;1.53;;
16792;SDS011;8513;42.662;23.350;2023-02-02T11:43:14;3.70;;;1.70;;
16792;SDS011;8513;42.662;23.350;2023-02-02T11:46:06;4.63;;;2.30;;
16792;SDS011;8513;42.662;23.350;2023-02-02T11:48:39;3.73;;;1.77;;
16792;SDS011;8513;42.662;23.350;2023-02-02T11:51:20;2.37;;;1.63;;
16792;SDS011;8513;42.662;23.350;2023-02-02T11:53:47;3.30;;;1.70;;
16792;SDS011;8513;42.662;23.350;2023-02-02T11:56:17;2.63;;;1.70;;
16792;SDS011;8513;42.662;23.350;2023-02-02T11:58:47;4.40;;;1.97;;
16792;SDS011;8513;42.662;23.350;2023-02-02T12:03:53;3.63;;;1.77;;
16792;SDS011;8513;42.662;23.350;2023-02-02T12:06:33;6.63;;;2.13;;
16792;SDS011;8513;42.662;23.350;2023-02-02T12:09:01;3.30;;;1.90;;
16792;SDS011;8513;42.662;23.350;2023-02-02T12:14:44;3.40;;;2.07;;
16792;SDS011;8513;42.662;23.350;2023-02-02T12:20:01;2.80;;;1.87;;
16792;SDS011;8513;42.662;23.350;2023-02-02T12:22:47;3.97;;;2.50;;
16792;SDS011;8513;42.662;23.350;2023-02-02T12:30:58;7.17;;;2.23;;
16792;SDS011;8513;42.662;23.350;2023-02-02T12:44:30;1.83;;;1.60;;
16792;SDS011;8513;42.662;23.350;2023-02-02T12:52:43;3.10;;;1.50;;
16792;SDS011;8513;42.662;23.350;2023-02-02T12:57:43;2.10;;;1.43;;
16792;SDS011;8513;42.662;23.350;2023-02-02T13:09:14;2.43;;;2.20;;
16792;SDS011;8513;42.662;23.350;2023-02-02T13:11:53;1.97;;;1.77;;
16792;SDS011;8513;42.662;23.350;2023-02-02T13:14:26;2.40;;;1.93;;
16792;SDS011;8513;42.662;23.350;2023-02-02T13:17:04;3.87;;;2.17;;
16792;SDS011;8513;42.662;23.350;2023-02-02T13:19:40;3.63;;;2.33;;
16792;SDS011;8513;42.662;23.350;2023-02-02T13:22:44;4.07;;;2.70;;
16792;SDS011;8513;42.662;23.350;2023-02-02T13:25:06;3.87;;;2.50;;
16792;SDS011;8513;42.662;23.350;2023-02-02T13:27:40;1.90;;;1.80;;
16792;SDS011;8513;42.662;23.350;2023-02-02T13:33:15;2.70;;;2.27;;
16792;SDS011;8513;42.662;23.350;2023-02-02T13:35:55;2.17;;;1.90;;
16792;SDS011;8513;42.662;23.350;2023-02-02T13:38:25;3.97;;;2.00;;
16792;SDS011;8513;42.662;23.350;2023-02-02T13:40:54;5.07;;;1.90;;
16792;SDS011;8513;42.662;23.350;2023-02-02T13:43:37;2.40;;;1.80;;
16792;SDS011;8513;42.662;23.350;2023-02-02T13:46:15;1.63;;;1.50;;
16792;SDS011;8513;42.662;23.350;2023-02-02T14:02:54;3.80;;;1.80;;
16792;SDS011;8513;42.662;23.350;2023-02-02T14:05:32;4.10;;;2.30;;
16792;SDS011;8513;42.662;23.350;2023-02-02T14:10:35;2.27;;;1.83;;
16792;SDS011;8513;42.662;23.350;2023-02-02T14:13:05;2.00;;;1.80;;
16792;SDS011;8513;42.662;23.350;2023-02-02T14:16:02;2.77;;;1.70;;
16792;SDS011;8513;42.662;23.350;2023-02-02T14:24:02;1.77;;;1.60;;
16792;SDS011;8513;42.662;23.350;2023-02-02T14:26:44;2.20;;;1.57;;
16792;SDS011;8513;42.662;23.350;2023-02-02T14:34:37;2.07;;;1.37;;
16792;SDS011;8513;42.662;23.350;2023-02-02T14:48:37;1.70;;;1.60;;
16792;SDS011;8513;42.662;23.350;2023-02-02T14:51:11;4.60;;;1.80;;
16792;SDS011;8513;42.662;23.350;2023-02-02T14:53:49;3.03;;;2.40;;
16792;SDS011;8513;42.662;23.350;2023-02-02T14:56:16;4.67;;;3.07;;
16792;SDS011;8513;42.662;23.350;2023-02-02T14:58:43;5.07;;;3.90;;
16792;SDS011;8513;42.662;23.350;2023-02-02T15:06:36;5.60;;;4.90;;
16792;SDS011;8513;42.662;23.350;2023-02-02T15:20:14;3.30;;;3.00;;
16792;SDS011;8513;42.662;23.350;2023-02-02T15:24:00;4.13;;;3.10;;
16792;SDS011;8513;42.662;23.350;2023-02-02T15:26:21;2.93;;;2.70;;
16792;SDS011;8513;42.662;23.350;2023-02-02T15:34:23;4.20;;;2.50;;
16792;SDS011;8513;42.662;23.350;2023-02-02T15:36:56;3.10;;;2.80;;
16792;SDS011;8513;42.662;23.350;2023-02-02T15:39:25;3.40;;;3.10;;
16792;SDS011;8513;42.662;23.350;2023-02-02T15:41:54;3.50;;;3.03;;
16792;SDS011;8513;42.662;23.350;2023-02-02T15:44:40;3.43;;;3.13;;
16792;SDS011;8513;42.662;23.350;2023-02-02T15:47:11;3.40;;;3.10;;
16792;SDS011;8513;42.662;23.350;2023-02-02T15:49:40;3.40;;;2.57;;
16792;SDS011;8513;42.662;23.350;2023-02-02T15:52:12;3.30;;;2.87;;
16792;SDS011;8513;42.662;23.350;2023-02-02T15:54:49;2.53;;;2.30;;
16792;SDS011;8513;42.662;23.350;2023-02-02T15:57:23;1.93;;;1.73;;
16792;SDS011;8513;42.662;23.350;2023-02-02T15:59:52;2.07;;;1.73;;
16792;SDS011;8513;42.662;23.350;2023-02-02T16:02:35;1.93;;;1.73;;
16792;SDS011;8513;42.662;23.350;2023-02-02T16:08:00;1.70;;;1.50;;
16792;SDS011;8513;42.662;23.350;2023-02-02T16:10:30;2.10;;;1.90;;
16792;SDS011;8513;42.662;23.350;2023-02-02T16:12:56;1.43;;;1.33;;
16792;SDS011;8513;42.662;23.350;2023-02-02T16:15:24;1.50;;;1.40;;
16792;SDS011;8513;42.662;23.350;2023-02-02T16:17:58;2.23;;;1.40;;
16792;SDS011;8513;42.662;23.350;2023-02-02T16:20:30;1.70;;;1.20;;
16792;SDS011;8513;42.662;23.350;2023-02-02T16:22:58;1.50;;;1.40;;
16792;SDS011;8513;42.662;23.350;2023-02-02T16:25:28;1.80;;;1.60;;
16792;SDS011;8513;42.662;23.350;2023-02-02T16:27:57;1.50;;;1.40;;
16792;SDS011;8513;42.662;23.350;2023-02-02T16:30:31;2.30;;;2.00;;
16792;SDS011;8513;42.662;23.350;2023-02-02T16:35:53;2.10;;;1.90;;
16792;SDS011;8513;42.662;23.350;2023-02-02T16:38:21;1.70;;;1.60;;
16792;SDS011;8513;42.662;23.350;2023-02-02T16:40:48;2.00;;;1.80;;
16792;SDS011;8513;42.662;23.350;2023-02-02T16:43:24;2.37;;;2.17;;
16792;SDS011;8513;42.662;23.350;2023-02-02T16:45:57;2.30;;;2.10;;
16792;SDS011;8513;42.662;23.350;2023-02-02T16:51:19;2.80;;;2.50;;
16792;SDS011;8513;42.662;23.350;2023-02-02T16:53:56;2.77;;;2.50;;
16792;SDS011;8513;42.662;23.350;2023-02-02T17:01:58;2.33;;;2.13;;
16792;SDS011;8513;42.662;23.350;2023-02-02T17:04:28;2.20;;;2.00;;
16792;SDS011;8513;42.662;23.350;2023-02-02T17:06:57;3.27;;;2.20;;
16792;SDS011;8513;42.662;23.350;2023-02-02T17:09:38;2.40;;;2.20;;
16792;SDS011;8513;42.662;23.350;2023-02-02T17:17:20;3.93;;;2.57;;
16792;SDS011;8513;42.662;23.350;2023-02-02T17:19:46;2.73;;;2.47;;
16792;SDS011;8513;42.662;23.350;2023-02-02T17:22:12;4.07;;;2.67;;
16792;SDS011;8513;42.662;23.350;2023-02-02T17:24:40;2.70;;;2.50;;
16792;SDS011;8513;42.662;23.350;2023-02-02T17:27:10;3.17;;;2.87;;
16792;SDS011;8513;42.662;23.350;2023-02-02T17:29:42;2.77;;;2.57;;
16792;SDS011;8513;42.662;23.350;2023-02-02T17:32:14;2.80;;;2.57;;
16792;SDS011;8513;42.662;23.350;2023-02-02T17:34:39;2.70;;;2.50;;
16792;SDS011;8513;42.662;23.350;2023-02-02T17:37:05;2.63;;;2.40;;
16792;SDS011;8513;42.662;23.350;2023-02-02T17:39:30;2.23;;;2.03;;
16792;SDS011;8513;42.662;23.350;2023-02-02T17:41:56;2.50;;;2.30;;
16792;SDS011;8513;42.662;23.350;2023-02-02T17:44:21;1.80;;;1.70;;
16792;SDS011;8513;42.662;23.350;2023-02-02T17:46:47;2.70;;;2.40;;
16792;SDS011;8513;42.662;23.350;2023-02-02T17:49:12;2.80;;;2.60;;
16792;SDS011;8513;42.662;23.350;2023-02-02T17:51:38;2.87;;;2.10;;
16792;SDS011;8513;42.662;23.350;2023-02-02T17:54:15;2.43;;;2.23;;
16792;SDS011;8513;42.662;23.350;2023-02-02T17:56:41;2.53;;;2.30;;
16792;SDS011;8513;42.662;23.350;2023-02-02T17:59:08;2.50;;;2.30;;
16792;SDS011;8513;42.662;23.350;2023-02-02T18:01:34;3.00;;;2.70;;
16792;SDS011;8513;42.662;23.350;2023-02-02T18:04:03;2.67;;;2.27;;
16792;SDS011;8513;42.662;23.350;2023-02-02T18:06:29;2.80;;;2.20;;
16792;SDS011;8513;42.662;23.350;2023-02-02T18:08:55;2.90;;;2.60;;
16792;SDS011;8513;42.662;23.350;2023-02-02T18:11:20;2.30;;;2.10;;
16792;SDS011;8513;42.662;23.350;2023-02-02T18:13:46;2.10;;;1.77;;